• Join FlightAware (Why Join?)
  • Login
  • US Flag 
01:51PM EDT


 

Airport Tracker/Info


-or-


 

Live Flight TrackerFlight Track Log ✈ N396QS ✈ 17-Jan-2014 ✈ KTEB - KEGE

Flight Track Log - Related Links

Times and Time Zones

All times are in EST time to prevent confusion due to time zone crossing. See the N396QS flight status page for this flight to view local times or setup timezone preferences in your user account.

Time Position Orientation Groundspeed Altitude Reporting Facility
EST Latitude Longitude Course Direction KTS MPH feet Rate Location/Type
01:21PM 40.8167 -74.1167 270° West 204 235 1,500  Level New York TRACON
01:22PM 40.8167 -74.1833 270° West 185 213 2,700 2,460 Climbing New York TRACON
01:23PM 40.8167 -74.2667 270° West 245 282 6,200 3,540 Climbing New York TRACON
01:24PM 40.8167 -74.3667 270° West 246 283 9,800 2,280 Climbing New York TRACON
01:25PM 40.8167 -74.4667 270° West 308 354 11,100 1,920 Climbing New York TRACON
01:26PM 40.8500 -74.5667 294° West 314 361 13,700 2,280 Climbing New York TRACON
01:27PM 40.9081 -74.6589 310° West 352 405 15,600 1,200 Climbing New York Center
01:28PM 40.9775 -74.7592 313° West 342 394 16,200 660 Climbing New York Center
01:29PM 40.9681 -74.8519 262° West 278 320 17,000 420 Climbing New York Center
01:30PM 40.9494 -74.9661 258° West 289 333 17,100 1,200 Climbing New York Center
01:31PM 40.9314 -75.0639 256° West 289 333 19,400 3,000 Climbing New York Center
01:32PM 40.9153 -75.1672 258° West 289 333 23,100 3,360 Climbing New York Center
01:33PM 40.8972 -75.2539 255° West 281 323 26,200 2,880 Climbing New York Center
01:34PM 40.8792 -75.3489 256° West 276 318 28,900 2,400 Climbing New York Center
01:35PM 40.8586 -75.4436 254° West 276 318 31,100 2,100 Climbing New York Center
01:36PM 40.8342 -75.5378 251° West 276 318 33,100 1,800 Climbing New York Center
01:37PM 40.8114 -75.6375 253° West 276 318 34,800 1,560 Climbing New York Center
01:38PM 40.7883 -75.7375 253° West 281 323 36,300 1,200 Climbing New York Center
01:39PM 40.7586 -75.8475 250° West 281 323 37,300 1,200 Climbing New York Center
01:40PM 40.7383 -75.9364 253° West 281 323 38,700 1,260 Climbing New York Center
01:41PM 40.7147 -76.0414 254° West 281 323 39,900 1,200 Climbing New York Center
01:42PM 40.6897 -76.1381 251° West 281 323 41,100 1,140 Climbing New York Center
01:43PM 40.6686 -76.2322 254° West 281 323 42,200 900 Climbing New York Center
01:44PM 40.6783 -76.3369 277° West 276 318 43,000 360 Climbing New York Center
01:45PM 40.6944 -76.4369 282° West 276 318 43,000  Level New York Center
01:46PM 40.7100 -76.5478 281° West 288 331 43,000  Level New York Center
01:47PM 40.7294 -76.6617 283° West 309 356 43,000  Level New York Center
01:48PM 40.7461 -76.7836 280° West 323 372 43,000  Level New York Center
01:49PM 40.7628 -76.9083 280° West 338 389 43,000  Level New York Center
01:50PM 40.7828 -77.0392 281° West 358 412 43,000  Level New York Center
01:51PM 40.8008 -77.1697 280° West 358 412 43,000  Level New York Center
01:52PM 40.8186 -77.3056 280° West 363 418 43,000  Level New York Center
01:53PM 40.8419 -77.4478 282° West 363 418 43,000  Level New York Center
01:54PM 40.8592 -77.5814 280° West 363 418 43,000  Level New York Center
01:56PM 40.8886 -77.7883 281° West 363 418 43,000  Level Cleveland Center
01:57PM 40.9097 -77.9442 280° West 361 415 43,000  Level Cleveland Center
01:58PM 40.9275 -78.0744 280° West 361 415 43,000  Level Cleveland Center
01:59PM 40.9433 -78.2036 279° West 357 411 43,000  Level Cleveland Center
02:00PM 40.9600 -78.3372 279° West 358 412 43,000  Level Cleveland Center
02:01PM 40.9761 -78.4656 279° West 356 410 43,000  Level Cleveland Center
02:02PM 40.9911 -78.5972 279° West 360 414 43,000  Level Cleveland Center
02:03PM 41.0039 -78.7256 278° West 356 410 43,000  Level Cleveland Center
02:04PM 41.0233 -78.8819 279° West 364 419 43,000  Level Cleveland Center
02:05PM 41.0403 -79.0164 280° West 382 440 43,000  Level Cleveland Center
02:06PM 41.0544 -79.1475 278° West 368 423 43,000  Level Cleveland Center
02:07PM 41.0683 -79.2794 278° West 367 422 43,000  Level Cleveland Center
02:08PM 41.0831 -79.4108 278° West 380 437 43,000  Level Cleveland Center
02:09PM 41.0983 -79.5406 279° West 367 422 43,000  Level Cleveland Center
02:10PM 41.1144 -79.6983 278° West 364 419 43,000  Level Cleveland Center
02:11PM 41.1300 -79.8319 279° West 367 422 43,000  Level Cleveland Center
02:12PM 41.1444 -79.9642 278° West 362 417 43,000  Level Cleveland Center
02:13PM 41.1567 -80.0864 278° West 356 410 43,000  Level Cleveland Center
02:14PM 41.1706 -80.2200 278° West 367 422 43,000  Level Cleveland Center
02:16PM 41.1886 -80.3772 279° West 365 420 43,000  Level Cleveland Center
02:17PM 41.2022 -80.5139 278° West 369 425 43,000  Level Cleveland Center
02:18PM 41.2142 -80.6464 277° West 363 418 43,000  Level Cleveland Center
02:19PM 41.2278 -80.7825 278° West 372 428 43,000  Level Cleveland Center
02:20PM 41.2422 -80.9183 278° West 366 421 43,000  Level Cleveland Center
02:21PM 41.2547 -81.0558 277° West 377 434 43,000  Level Cleveland Center
02:22PM 41.2708 -81.2167 278° West 373 429 43,000  Level Cleveland Center
02:23PM 41.2847 -81.3522 278° West 368 423 43,000  Level Cleveland Center
02:24PM 41.2958 -81.4819 277° West 375 432 43,000  Level Cleveland Center
02:25PM 41.3089 -81.6150 277° West 367 422 43,000  Level Cleveland Center
02:26PM 41.3217 -81.7506 277° West 370 426 43,000  Level Cleveland Center
02:27PM 41.3361 -81.9128 277° West 369 425 43,000  Level Cleveland Center
02:28PM 41.3492 -82.0500 277° West 375 432 43,000  Level Cleveland Center
02:29PM 41.3606 -82.1872 276° West 373 429 43,000  Level Cleveland Center
02:30PM 41.3686 -82.3256 274° West 370 426 43,000  Level Cleveland Center
02:31PM 41.3767 -82.4642 274° West 370 426 43,000  Level Cleveland Center
02:32PM 41.3836 -82.6025 274° West 371 427 43,000  Level Cleveland Center
02:33PM 41.3939 -82.7631 275° West 370 426 43,000  Level Cleveland Center
02:34PM 41.4017 -82.9011 274° West 371 427 43,000  Level Cleveland Center
02:35PM 41.4081 -83.0397 274° West 373 429 43,000  Level Cleveland Center
02:36PM 41.4144 -83.1789 274° West 373 429 43,000  Level Cleveland Center
02:37PM 41.4228 -83.3286 274° West 371 427 43,000  Level Cleveland Center
02:38PM 41.4300 -83.4658 274° West 371 427 43,000  Level Cleveland Center
02:39PM 41.4372 -83.6050 274° West 374 430 43,000  Level Cleveland Center
02:40PM 41.4442 -83.7444 274° West 377 434 43,000  Level Cleveland Center
02:41PM 41.4503 -83.8844 273° West 378 435 43,000  Level Cleveland Center
02:42PM 41.4556 -84.0250 273° West 380 437 43,000  Level Cleveland Center
02:43PM 41.4592 -84.1275 273° West 380 437 43,000  Level Chicago Center
02:44PM 41.4656 -84.2694 273° West 382 440 43,000  Level Chicago Center
02:45PM 41.4714 -84.4114 273° West 385 443 43,000  Level Chicago Center
02:46PM 41.4767 -84.5517 273° West 381 438 43,000  Level Chicago Center
02:47PM 41.4828 -84.6936 273° West 383 441 43,000  Level Chicago Center
02:48PM 41.4881 -84.8356 273° West 385 443 43,000  Level Chicago Center
02:49PM 41.4942 -85.0050 273° West 383 441 43,000  Level Chicago Center
02:50PM 41.4994 -85.1489 273° West 384 442 43,000  Level Chicago Center
02:51PM 41.5042 -85.2917 273° West 384 442 43,000  Level Chicago Center
02:52PM 41.5119 -85.4369 274° West 384 442 43,000  Level Chicago Center
02:53PM 41.5136 -85.5822 271° West 385 443 43,000  Level Chicago Center
02:54PM 41.5172 -85.7300 272° West 395 455 43,000  Level Chicago Center
02:55PM 41.5206 -85.8769 272° West 397 457 43,000  Level Chicago Center
02:56PM 41.5253 -86.0256 272° West 400 460 43,000  Level Chicago Center
02:57PM 41.5278 -86.2028 271° West 399 459 43,000  Level Chicago Center
02:58PM 41.5311 -86.3494 272° West 397 457 43,000  Level Chicago Center
03:00PM 41.5325 -86.4972 271° West 399 459 43,000  Level Chicago Center
03:01PM 41.5356 -86.6442 272° West 398 458 43,000  Level Chicago Center
03:02PM 41.5369 -86.8003 271° West 398 458 43,000  Level Chicago Center
03:03PM 41.5389 -86.9478 271° West 399 459 43,000  Level Chicago Center
03:04PM 41.5406 -87.0953 271° West 400 460 43,000  Level Chicago Center
03:05PM 41.5419 -87.2725 271° West 400 460 43,000  Level Chicago Center
03:06PM 41.5428 -87.4208 270° West 401 461 43,000  Level Chicago Center
03:07PM 41.5436 -87.5697 270° West 402 463 43,000  Level Chicago Center
03:08PM 41.5442 -87.7178 270° West 403 464 43,000  Level Chicago Center
03:09PM 41.5444 -87.8661 270° West 403 464 43,000  Level Chicago Center
03:10PM 41.5444 -88.0394 270° West 403 464 43,000  Level Chicago Center
03:11PM 41.5447 -88.1836 270° West 402 463 43,000  Level Chicago Center
03:12PM 41.5447 -88.3303 270° West 402 463 43,000  Level Chicago Center
03:13PM 41.5461 -88.4822 271° West 410 472 43,000  Level Chicago Center
03:14PM 41.5472 -88.6608 271° West 405 466 43,000  Level Chicago Center
03:15PM 41.5464 -88.8078 270° West 401 461 43,000  Level Chicago Center
03:16PM 41.5475 -88.9564 271° West 401 461 43,000  Level Chicago Center
03:17PM 41.5469 -89.1042 270° West 401 461 43,000  Level Chicago Center
03:18PM 41.5475 -89.2550 270° West 411 473 43,000  Level Chicago Center
03:19PM 41.5481 -89.4325 270° West 399 459 43,000  Level Chicago Center
03:20PM 41.5475 -89.5744 270° West 400 460 43,000  Level Chicago Center
03:21PM 41.5464 -89.7258 269° West 407 468 43,000  Level Chicago Center
03:22PM 41.5453 -89.8725 269° West 402 463 43,000  Level Chicago Center
03:23PM 41.5442 -90.0219 269° West 407 468 43,000  Level Chicago Center
03:24PM 41.5436 -90.2011 270° West 407 468 43,000  Level Chicago Center
03:25PM 41.5403 -90.3567 268° West 423 487 43,000  Level Chicago Center
03:26PM 41.5378 -90.5056 269° West 409 471 43,000  Level Chicago Center
03:27PM 41.5364 -90.6403 269° West 403 464 43,000  Level Chicago Center
03:28PM 41.5336 -90.8183 269° West 402 463 43,000  Level Chicago Center
03:29PM 41.5319 -90.9653 269° West 399 459 43,000  Level Chicago Center
03:31PM 41.5292 -91.1147 269° West 403 464 43,000  Level Chicago Center
03:32PM 41.5261 -91.2619 268° West 399 459 43,000  Level Chicago Center
03:33PM 41.5239 -91.4119 269° West 405 466 43,000  Level Chicago Center
03:34PM 41.5197 -91.5639 268° West 409 471 43,000  Level Chicago Center
03:35PM 41.5061 -91.7456 264° West 414 476 43,000  Level Chicago Center
03:36PM 41.4919 -91.8967 263° West 413 475 43,000  Level Chicago Center
03:37PM 41.4775 -92.0481 263° West 413 475 43,000  Level Chicago Center
03:38PM 41.4636 -92.1978 263° West 410 472 43,000  Level Chicago Center
03:39PM 41.4486 -92.3461 262° West 407 468 43,000  Level Chicago Center
03:40PM 41.4311 -92.5156 262° West 412 474 43,000  Level Chicago Center
03:41PM 41.4186 -92.6339 262° West 407 468 43,000  Level Minneapolis Center
03:42PM 41.4006 -92.8150 262° West 412 474 43,000  Level Minneapolis Center
03:43PM 41.3842 -92.9653 262° West 413 475 43,000  Level Minneapolis Center
03:44PM 41.3689 -93.1167 262° West 416 479 43,000  Level Minneapolis Center
03:45PM 41.3528 -93.2672 262° West 415 478 43,000  Level Minneapolis Center
03:46PM 41.3367 -93.4178 262° West 415 478 43,000  Level Minneapolis Center
03:47PM 41.3158 -93.5978 261° West 414 476 43,000  Level Minneapolis Center
03:48PM 41.2992 -93.7494 262° West 415 478 43,000  Level Minneapolis Center
03:49PM 41.2822 -93.8997 262° West 416 479 43,000  Level Minneapolis Center
03:50PM 41.2636 -94.0497 261° West 415 478 43,000  Level Minneapolis Center
03:51PM 41.2472 -94.2003 262° West 415 478 43,000  Level Minneapolis Center
03:52PM 41.2314 -94.3511 262° West 412 474 43,000  Level Minneapolis Center
03:53PM 41.2097 -94.5350 261° West 418 481 43,000  Level Minneapolis Center
03:54PM 41.1911 -94.6892 261° West 421 484 43,000  Level Minneapolis Center
03:55PM 41.1731 -94.8422 261° West 422 486 43,000  Level Minneapolis Center
03:56PM 41.1533 -94.9967 260° West 423 487 43,000  Level Minneapolis Center
03:57PM 41.1339 -95.1500 260° West 422 486 43,000  Level Minneapolis Center
03:58PM 41.1153 -95.3036 261° West 422 486 43,000  Level Minneapolis Center
03:59PM 41.0911 -95.4864 260° West 419 482 43,000  Level Minneapolis Center
04:00PM 41.0719 -95.6372 260° West 415 478 43,000  Level Minneapolis Center
04:01PM 41.0533 -95.7897 261° West 415 478 43,000  Level Minneapolis Center
04:02PM 41.0333 -95.9406 260° West 414 476 43,000  Level Minneapolis Center
04:03PM 41.0136 -96.0936 260° West 416 479 43,000  Level Minneapolis Center
04:04PM 40.9922 -96.2467 260° West 419 482 43,000  Level Minneapolis Center
04:06PM 40.9708 -96.4006 260° West 422 486 43,000  Level Minneapolis Center
04:07PM 40.9494 -96.5556 260° West 425 489 43,000  Level Minneapolis Center
04:08PM 40.9256 -96.7403 260° West 425 489 43,000  Level Minneapolis Center
04:09PM 40.9103 -96.8942 263° West 424 488 43,000  Level Minneapolis Center
04:10PM 40.8944 -97.0478 262° West 423 487 43,000  Level Minneapolis Center
04:11PM 40.8803 -97.2028 263° West 424 488 43,000  Level Minneapolis Center
04:12PM 40.8631 -97.3761 263° West 421 484 43,000  Level Minneapolis Center
04:13PM 40.8469 -97.5300 262° West 422 486 43,000  Level Minneapolis Center
04:14PM 40.8319 -97.6847 263° West 423 487 43,000  Level Minneapolis Center
04:15PM 40.8164 -97.8386 262° West 422 486 43,000  Level Minneapolis Center
04:16PM 40.8000 -97.9933 262° West 424 488 43,000  Level Minneapolis Center
04:17PM 40.7842 -98.1447 262° West 419 482 43,000  Level Minneapolis Center
04:18PM 40.7669 -98.2978 262° West 418 481 43,000  Level Minneapolis Center
04:19PM 40.7478 -98.4797 262° West 416 479 43,000  Level Minneapolis Center
04:20PM 40.7319 -98.6328 262° West 417 480 43,000  Level Minneapolis Center
04:21PM 40.7139 -98.7861 261° West 418 481 43,000  Level Minneapolis Center
04:22PM 40.6969 -98.9392 262° West 419 482 43,000  Level Minneapolis Center
04:23PM 40.6794 -99.0942 262° West 421 484 43,000  Level Minneapolis Center
04:24PM 40.6683 -99.1869 261° West 424 488 43,000  Level Denver Center
04:25PM 40.6508 -99.3417 262° West 424 488 43,000  Level Denver Center
04:26PM 40.6319 -99.4969 261° West 427 491 43,000  Level Denver Center
04:27PM 40.6131 -99.6503 261° West 425 489 43,000  Level Denver Center
04:28PM 40.5956 -99.8061 262° West 428 493 43,000  Level Denver Center
04:29PM 40.5742 -99.9739 261° West 429 494 43,000  Level Denver Center
04:30PM 40.5533 -100.1453 261° West 423 487 43,000  Level Denver Center
04:31PM 40.5342 -100.2947 260° West 429 494 43,000  Level Denver Center
04:32PM 40.5131 -100.4664 261° West 427 491 43,000  Level Denver Center
04:33PM 40.4933 -100.6133 260° West 424 488 43,000  Level Denver Center
04:34PM 40.4725 -100.7847 261° West 423 487 43,000  Level Denver Center
04:35PM 40.4528 -100.9311 260° West 422 486 43,000  Level Denver Center
04:36PM 40.4342 -101.0775 261° West 423 487 43,000  Level Denver Center
04:37PM 40.4142 -101.2461 261° West 420 483 43,000  Level Denver Center
04:38PM 40.3953 -101.3914 260° West 420 483 43,000  Level Denver Center
04:39PM 40.3739 -101.5608 261° West 420 483 43,000  Level Denver Center
04:40PM 40.3550 -101.7072 260° West 424 488 43,000  Level Denver Center
04:41PM 40.3322 -101.8756 260° West 421 484 43,000  Level Denver Center
04:42PM 40.3144 -102.0172 261° West 413 475 43,000  Level Denver Center
04:43PM 40.2919 -102.1794 260° West 407 468 43,000  Level Denver Center
04:44PM 40.2733 -102.3178 260° West 403 464 43,000  Level Denver Center
04:45PM 40.2511 -102.4817 260° West 408 470 43,000  Level Denver Center
04:46PM 40.2328 -102.6236 260° West 412 474 43,000  Level Denver Center
04:47PM 40.2131 -102.7672 260° West 417 480 43,000  Level Denver Center
04:49PM 40.1919 -102.9150 259° West 416 479 43,000  Level Denver Center
04:50PM 40.1667 -103.0936 260° West 417 480 43,000  Level Denver Center
04:51PM 40.1486 -103.2411 261° West 415 478 43,000 -420 Level Denver Center
04:52PM 40.1400 -103.3925 266° West 416 479 42,200 -1,080 Descending Denver Center
04:53PM 40.1297 -103.5397 265° West 413 475 40,800 -1,440 Descending Denver Center
04:54PM 40.1075 -103.6731 258° West 391 450 39,300 -1,980 Descending Denver Center
04:55PM 40.0553 -103.8286 246° West 391 450 36,800 -2,340 Descending Denver Center
04:56PM 40.0069 -103.9633 245° Southwest 407 468 34,500 -2,280 Descending Denver Center
04:57PM 39.9992 -104.1097 266° West 408 470 32,200 -2,280 Descending Denver Center
04:58PM 40.0069 -104.2561 274° West 406 467 29,900 -2,040 Descending Denver Center
04:59PM 40.0150 -104.4008 274° West 404 465 28,000 -960 Descending Denver Center
05:00PM 40.0247 -104.5775 274° West 410 472 28,000  Level Denver Center
05:01PM 40.0331 -104.7275 274° West 417 480 28,000 -60 Level Denver Center
05:02PM 40.0339 -104.8789 270° West 420 483 27,900 -480 Descending Denver Center
05:03PM 40.0314 -105.0272 269° West 416 479 27,000 -480 Descending Denver Center
05:04PM 40.0297 -105.1467 269° West 414 476 27,000  Level Denver Center
05:05PM 40.0264 -105.3578 269° West 418 481 27,000 -480 Level Denver Center
05:06PM 40.0231 -105.5022 268° West 408 470 26,000 -1,140 Descending Denver Center
05:07PM 40.0092 -105.6464 263° West 411 473 24,700 -1,380 Descending Denver Center
05:08PM 39.9747 -105.7842 252° West 404 465 23,200 -1,500 Descending Denver Center
05:09PM 39.9442 -105.9175 253° West 390 449 21,600 -1,560 Descending Denver Center
05:10PM 39.9092 -106.0506 251° West 388 447 20,000 -1,560 Descending Denver Center
05:11PM 39.8772 -106.1803 252° West 374 430 18,400 -1,620 Descending Denver Center
05:12PM 39.8392 -106.3297 252° West 363 418 16,700 -1,140 Descending Denver Center
05:14PM 39.8044 -106.4708 252° West 350 403 15,900 -1,320 Descending Denver Center
05:15PM 39.7364 -106.5542 223° Southwest 349 402 13,800 -1,800 Descending Denver Center
05:16PM 39.6842 -106.6339 230° Southwest 319 367 12,200 -1,500 Descending Denver Center
05:17PM 39.6639 -106.7158 252° West 256 295 10,800 -1,320 Descending Denver Center
05:18PM 39.6603 -106.7789 266° West 187 215 9,500 -1,500 Descending Denver Center
05:19PM 39.6514 -106.8394 259° West 150 173 7,700 -1,260 Descending Denver Center
05:20PM 39.6456 -106.8881 261° West 139 160 6,900 -780 Descending Denver Center